»·PEaware :: N172MY KBOI-KOGD

N172MY :: KBOI-KOGD

FLIGHT INFORMATION

Flight Status: Arrived
Operator: Privately registered:
United States
More flights under this callsign
Pilot: Christopher V. (26992)
Aircraft: PIPER PA-28R-201 ARROW
(P28R)
More flights by this aircraft type
Origin: KBOI Boise Air Terminal/Gowen
United States
Destination: KOGD Ogden-Hinckley
United States
More flights between these airports :: More routes between these airports
Route:
File this flight plan on PilotEdge
Remarks:
Altitude:
(Current/Filed)
9,500ft
Speed:
(Current/Filed)
120kts
Departed: 03-May-20 11:06 AM
Arrived: 03-May-20 12:46 PM
Distance/Time
Traveled:
235nm/1:39
Distance/Time
To Go:
Arrived

Flight Plot

Page will automatically refresh every two minutes.


Map Options




Map Legend


Flown Route
Filed Route
Departure Airport
Arrival Airport
Navaid (VOR, NDB)
Fix

Horizontal Profiles

Position Reports

Time Latitude Longitude Heading Altitude Ground
Speed
03-May-20 10:52 43.564288 -116.238046 356 2873ft 0kts
03-May-20 10:53 43.564288 -116.238046 356 2873ft 0kts
03-May-20 10:54 43.564288 -116.238046 356 2873ft 0kts
03-May-20 10:55 43.564288 -116.238046 356 2873ft 0kts
03-May-20 10:56 43.564288 -116.238046 356 2873ft 0kts
03-May-20 10:57 43.564288 -116.238046 356 2873ft 0kts
03-May-20 10:58 43.564288 -116.238046 356 2873ft 0kts
03-May-20 10:59 43.564350 -116.238051 356 2873ft 4kts
03-May-20 11:00 43.565387 -116.232943 107 2873ft 14kts
03-May-20 11:01 43.562876 -116.225511 114 2873ft 26kts
03-May-20 11:02 43.559530 -116.215698 115 2873ft 29kts
03-May-20 11:03 43.557820 -116.210286 37 2873ft 0kts
03-May-20 11:04 43.557840 -116.210265 37 2873ft 0kts
03-May-20 11:05 43.561096 -116.216637 297 2890ft 76kts
03-May-20 11:06 43.572557 -116.251612 292 3577ft 97kts
03-May-20 11:07 43.552963 -116.242713 118 4179ft 131kts
03-May-20 11:08 43.534326 -116.200529 124 4878ft 127kts
03-May-20 11:09 43.511277 -116.163184 130 5528ft 124kts
03-May-20 11:10 43.487666 -116.126246 129 6093ft 128kts
03-May-20 11:11 43.464144 -116.088350 132 6615ft 131kts
03-May-20 11:12 43.440671 -116.050458 132 7167ft 128kts
03-May-20 11:13 43.416734 -116.014536 137 7729ft 126kts
03-May-20 11:14 43.394266 -115.976266 128 8221ft 128kts
03-May-20 11:15 43.373134 -115.936497 128 8721ft 128kts
03-May-20 11:16 43.351314 -115.897587 127 9177ft 130kts
03-May-20 11:17 43.330257 -115.856436 124 9546ft 134kts
03-May-20 11:18 43.307681 -115.812754 125 9654ft 145kts
03-May-20 11:19 43.283054 -115.764610 123 9452ft 156kts
03-May-20 11:20 43.261861 -115.714323 121 9478ft 151kts
03-May-20 11:21 43.238188 -115.666756 129 9501ft 150kts
03-May-20 11:22 43.211064 -115.622996 132 9512ft 150kts
03-May-20 11:23 43.183225 -115.580058 136 9523ft 150kts
03-May-20 11:24 43.155263 -115.537138 132 9516ft 151kts
03-May-20 11:25 43.130833 -115.490838 123 9527ft 151kts
03-May-20 11:26 43.108596 -115.442295 117 9532ft 151kts
03-May-20 11:27 43.088181 -115.392536 120 9552ft 149kts
03-May-20 11:28 43.067890 -115.342771 119 9550ft 149kts
03-May-20 11:29 43.048464 -115.292132 120 9519ft 151kts
03-May-20 11:30 43.028171 -115.242679 118 9546ft 150kts
03-May-20 11:31 43.007584 -115.192608 121 9494ft 150kts
03-May-20 11:32 42.986193 -115.143726 122 9495ft 149kts
03-May-20 11:33 42.963972 -115.095586 124 9492ft 150kts
03-May-20 11:34 42.942311 -115.046913 125 9493ft 150kts
03-May-20 11:35 42.920320 -114.998422 123 9489ft 151kts
03-May-20 11:36 42.899003 -114.948747 122 9503ft 150kts
03-May-20 11:37 42.876717 -114.900060 128 9502ft 151kts
03-May-20 11:38 42.855138 -114.850586 121 9481ft 153kts
03-May-20 11:39 42.833453 -114.800830 124 9480ft 153kts
03-May-20 11:41 42.811267 -114.751838 124 9466ft 153kts
03-May-20 11:42 42.788554 -114.703199 126 9491ft 150kts
03-May-20 11:43 42.766169 -114.654630 121 9473ft 154kts
03-May-20 11:44 42.744136 -114.605523 122 9513ft 150kts
03-May-20 11:45 42.721352 -114.557151 126 9493ft 151kts
03-May-20 11:46 42.699216 -114.508443 124 9534ft 151kts
03-May-20 11:47 42.676142 -114.460495 126 9532ft 151kts
03-May-20 11:48 42.653492 -114.411935 125 9517ft 152kts
03-May-20 11:49 42.631533 -114.362705 123 9514ft 152kts
03-May-20 11:50 42.608976 -114.314000 126 9488ft 151kts
03-May-20 11:51 42.584737 -114.267263 127 9465ft 151kts
03-May-20 11:52 42.561268 -114.219965 126 9488ft 149kts
03-May-20 11:53 42.538564 -114.172931 124 9479ft 152kts
03-May-20 11:54 42.515642 -114.125163 128 9480ft 150kts
03-May-20 11:55 42.492573 -114.077830 128 9471ft 150kts
03-May-20 11:56 42.469104 -114.031134 124 9466ft 151kts
03-May-20 11:57 42.446032 -113.984208 128 9493ft 149kts
03-May-20 11:57 42.425763 -113.945829 129 9492ft 149kts
03-May-20 11:59 42.396820 -113.893419 127 9501ft 149kts
03-May-20 12:00 42.374457 -113.845886 126 9502ft 150kts
03-May-20 12:00 42.354754 -113.807084 129 9510ft 149kts
03-May-20 12:01 42.329421 -113.762646 133 9515ft 150kts
03-May-20 12:02 42.302984 -113.719123 129 9508ft 150kts
03-May-20 12:03 42.279906 -113.671912 126 9530ft 150kts
03-May-20 12:04 42.254506 -113.627471 137 9516ft 149kts
03-May-20 12:05 42.223745 -113.590690 139 9520ft 148kts
03-May-20 12:06 42.198169 -113.547213 129 9568ft 148kts
03-May-20 12:07 42.174047 -113.502250 126 9601ft 148kts
03-May-20 12:08 42.151217 -113.454828 126 9547ft 152kts
03-May-20 12:09 42.126971 -113.408538 127 9536ft 151kts
03-May-20 12:10 42.102740 -113.362531 128 9525ft 150kts
03-May-20 12:11 42.077390 -113.318073 131 9521ft 149kts
03-May-20 12:12 42.051530 -113.274979 135 9518ft 148kts
03-May-20 12:13 42.023746 -113.233902 136 9539ft 147kts
03-May-20 12:14 41.995464 -113.193833 138 9530ft 147kts
03-May-20 12:15 41.966780 -113.153734 137 9508ft 149kts
03-May-20 12:16 41.935871 -113.117228 142 9481ft 148kts
03-May-20 12:17 41.905816 -113.078898 143 9433ft 149kts
03-May-20 12:18 41.875043 -113.041917 142 9430ft 149kts
03-May-20 12:19 41.844963 -113.002929 141 9373ft 151kts
03-May-20 12:20 41.813231 -112.967055 143 9380ft 150kts
03-May-20 12:21 41.781789 -112.930226 143 9372ft 150kts
03-May-20 12:22 41.758077 -112.883731 123 9369ft 152kts
03-May-20 12:23 41.734724 -112.836251 121 9352ft 153kts
03-May-20 12:24 41.716956 -112.784333 118 9366ft 151kts
03-May-20 12:25 41.695447 -112.735651 128 9339ft 153kts
03-May-20 12:26 41.670449 -112.690593 127 9382ft 151kts
03-May-20 12:27 41.645108 -112.646756 129 9506ft 145kts
03-May-20 12:28 41.621628 -112.600709 119 9470ft 151kts
03-May-20 12:29 41.594363 -112.558126 139 9454ft 149kts
03-May-20 12:30 41.563360 -112.519977 138 9304ft 157kts
03-May-20 12:31 41.532056 -112.477859 137 8969ft 162kts
03-May-20 12:32 41.498375 -112.437010 138 8401ft 164kts
03-May-20 12:33 41.466677 -112.393056 145 7864ft 165kts
03-May-20 12:34 41.429876 -112.357890 144 7430ft 163kts
03-May-20 12:35 41.398185 -112.315092 132 7034ft 164kts
03-May-20 12:36 41.368766 -112.268919 128 6632ft 163kts
03-May-20 12:37 41.340370 -112.221506 131 6303ft 161kts
03-May-20 12:38 41.308784 -112.178709 131 6011ft 160kts
03-May-20 12:39 41.278855 -112.133981 129 5774ft 150kts
03-May-20 12:40 41.252884 -112.097002 131 5476ft 125kts
03-May-20 12:41 41.231087 -112.064621 129 5301ft 107kts
03-May-20 12:42 41.202717 -112.050011 179 5269ft 110kts
03-May-20 12:43 41.176481 -112.050593 112 5114ft 91kts
03-May-20 12:44 41.184792 -112.024372 34 4631ft 69kts
03-May-20 12:45 41.191584 -112.013501 44 4475ft 12kts
03-May-20 12:46 41.193385 -112.011073 43 4475ft 5kts
03-May-20 12:47 41.192052 -112.010485 182 4475ft 6kts
03-May-20 12:48 41.191575 -112.010020 358 4475ft 0kts
03-May-20 12:49 41.191576 -112.010020 358 4475ft 0kts
03-May-20 12:50 41.191576 -112.010020 358 4475ft 0kts
03-May-20 12:51 41.191582 -112.010020 358 4475ft 0kts
03-May-20 12:52 41.191582 -112.010020 358 4475ft 0kts
03-May-20 12:53 41.191582 -112.010020 358 4475ft 0kts
03-May-20 12:54 41.191582 -112.010020 358 4475ft 0kts
03-May-20 12:55 41.191582 -112.010020 358 4475ft 0kts
03-May-20 12:56 41.191582 -112.010020 358 4475ft 0kts
03-May-20 12:57 41.191582 -112.010020 358 4475ft 0kts
03-May-20 12:58 41.191582 -112.010020 358 4475ft 0kts
03-May-20 12:59 41.191582 -112.010020 358 4475ft 0kts

Navigation Log

Ident Type
Flight plan parsing failed, navigation log unavailable